sensor_id;sensor_type;location;lat;lon;timestamp;pressure;altitude;pressure_sealevel;temperature;humidity
73422;BME280;61637;47.760;-122.022;2023-04-09T00:00:00;101930.339;;;8.7;unknown
73422;BME280;61637;47.760;-122.022;2023-04-09T00:02:00;101930.339;;;8.8;unknown
73422;BME280;61637;47.760;-122.022;2023-04-09T00:04:00;101930.339;;;8.8;unknown
73422;BME280;61637;47.760;-122.022;2023-04-09T00:06:00;101930.339;;;8.9;unknown
73422;BME280;61637;47.760;-122.022;2023-04-09T00:08:01;101930.339;;;8.9;unknown
73422;BME280;61637;47.760;-122.022;2023-04-09T00:10:01;101930.339;;;9.0;unknown
73422;BME280;61637;47.760;-122.022;2023-04-09T00:12:00;101930.339;;;9.0;unknown
73422;BME280;61637;47.760;-122.022;2023-04-09T00:14:00;101930.339;;;9.1;unknown
73422;BME280;61637;47.760;-122.022;2023-04-09T00:16:00;101930.339;;;9.1;unknown
73422;BME280;61637;47.760;-122.022;2023-04-09T00:18:00;101930.339;;;9.1;unknown
73422;BME280;61637;47.760;-122.022;2023-04-09T00:20:01;101930.339;;;9.1;unknown
73422;BME280;61637;47.760;-122.022;2023-04-09T00:22:01;101930.339;;;9.1;unknown
73422;BME280;61637;47.760;-122.022;2023-04-09T00:24:00;101930.339;;;9.1;unknown
73422;BME280;61637;47.760;-122.022;2023-04-09T00:26:00;101930.339;;;9.1;unknown
73422;BME280;61637;47.760;-122.022;2023-04-09T00:28:00;101930.339;;;9.1;unknown
73422;BME280;61637;47.760;-122.022;2023-04-09T00:30:00;101930.339;;;9.1;unknown
73422;BME280;61637;47.760;-122.022;2023-04-09T00:32:01;101930.339;;;9.1;unknown
73422;BME280;61637;47.760;-122.022;2023-04-09T00:34:01;101930.339;;;9.1;unknown
73422;BME280;61637;47.760;-122.022;2023-04-09T00:36:00;101930.339;;;9.1;unknown
73422;BME280;61637;47.760;-122.022;2023-04-09T00:38:00;101930.339;;;9.0;unknown
73422;BME280;61637;47.760;-122.022;2023-04-09T00:40:00;101930.339;;;8.9;unknown
73422;BME280;61637;47.760;-122.022;2023-04-09T00:42:00;101930.339;;;8.9;unknown
73422;BME280;61637;47.760;-122.022;2023-04-09T00:44:01;101930.339;;;8.9;unknown
73422;BME280;61637;47.760;-122.022;2023-04-09T00:46:01;101930.339;;;8.9;unknown
73422;BME280;61637;47.760;-122.022;2023-04-09T00:48:00;101930.339;;;8.9;unknown
73422;BME280;61637;47.760;-122.022;2023-04-09T00:50:01;101930.339;;;8.9;unknown
73422;BME280;61637;47.760;-122.022;2023-04-09T00:52:00;101930.339;;;8.9;unknown
73422;BME280;61637;47.760;-122.022;2023-04-09T00:54:00;101930.339;;;8.9;unknown
73422;BME280;61637;47.760;-122.022;2023-04-09T00:56:01;101930.339;;;8.9;unknown
73422;BME280;61637;47.760;-122.022;2023-04-09T00:58:01;101930.339;;;8.9;unknown
73422;BME280;61637;47.760;-122.022;2023-04-09T01:00:00;101930.339;;;8.9;unknown
73422;BME280;61637;47.760;-122.022;2023-04-09T01:02:00;101930.339;;;8.9;unknown
73422;BME280;61637;47.760;-122.022;2023-04-09T01:04:00;101930.339;;;8.9;unknown
73422;BME280;61637;47.760;-122.022;2023-04-09T01:06:03;101930.339;;;8.9;unknown
73422;BME280;61637;47.760;-122.022;2023-04-09T01:08:02;101930.339;;;8.9;unknown
73422;BME280;61637;47.760;-122.022;2023-04-09T01:10:04;101930.339;;;8.9;unknown
73422;BME280;61637;47.760;-122.022;2023-04-09T01:12:04;101930.339;;;8.9;unknown
73422;BME280;61637;47.760;-122.022;2023-04-09T01:14:04;101930.339;;;9.0;unknown
73422;BME280;61637;47.760;-122.022;2023-04-09T01:16:00;101930.339;;;9.0;unknown
73422;BME280;61637;47.760;-122.022;2023-04-09T01:18:01;101930.339;;;9.0;unknown
73422;BME280;61637;47.760;-122.022;2023-04-09T01:20:01;101591.7;;;9.0;unknown
73422;BME280;61637;47.760;-122.022;2023-04-09T01:22:01;101591.7;;;9.0;unknown
73422;BME280;61637;47.760;-122.022;2023-04-09T01:24:08;101591.7;;;9.1;unknown
73422;BME280;61637;47.760;-122.022;2023-04-09T01:26:02;101591.7;;;9.1;unknown
73422;BME280;61637;47.760;-122.022;2023-04-09T01:28:07;101591.7;;;9.1;unknown
73422;BME280;61637;47.760;-122.022;2023-04-09T01:30:00;101591.7;;;9.1;unknown
73422;BME280;61637;47.760;-122.022;2023-04-09T01:32:01;101591.7;;;9.1;unknown
73422;BME280;61637;47.760;-122.022;2023-04-09T01:34:01;101930.339;;;9.1;unknown
73422;BME280;61637;47.760;-122.022;2023-04-09T01:36:00;101591.7;;;9.1;unknown
73422;BME280;61637;47.760;-122.022;2023-04-09T01:38:00;101591.7;;;9.0;unknown
73422;BME280;61637;47.760;-122.022;2023-04-09T01:40:00;101591.7;;;8.9;unknown
73422;BME280;61637;47.760;-122.022;2023-04-09T01:42:00;101930.339;;;9.0;unknown
73422;BME280;61637;47.760;-122.022;2023-04-09T01:44:01;101930.339;;;8.9;unknown
73422;BME280;61637;47.760;-122.022;2023-04-09T01:46:01;101930.339;;;9.0;unknown
73422;BME280;61637;47.760;-122.022;2023-04-09T01:48:00;101591.7;;;9.0;unknown
73422;BME280;61637;47.760;-122.022;2023-04-09T01:50:00;101930.339;;;8.9;unknown
73422;BME280;61637;47.760;-122.022;2023-04-09T01:52:00;101930.339;;;8.9;unknown
73422;BME280;61637;47.760;-122.022;2023-04-09T01:54:02;101930.339;;;8.9;unknown
73422;BME280;61637;47.760;-122.022;2023-04-09T01:56:01;101930.339;;;8.9;unknown
73422;BME280;61637;47.760;-122.022;2023-04-09T01:58:01;101930.339;;;8.9;unknown
73422;BME280;61637;47.760;-122.022;2023-04-09T02:00:00;101930.339;;;8.8;unknown
73422;BME280;61637;47.760;-122.022;2023-04-09T02:02:02;101930.339;;;8.8;unknown
73422;BME280;61637;47.760;-122.022;2023-04-09T02:04:01;101930.339;;;8.8;unknown
73422;BME280;61637;47.760;-122.022;2023-04-09T02:06:02;101591.7;;;8.8;unknown
73422;BME280;61637;47.760;-122.022;2023-04-09T02:08:01;101591.7;;;8.8;unknown
73422;BME280;61637;47.760;-122.022;2023-04-09T02:10:01;101591.7;;;8.7;unknown
73422;BME280;61637;47.760;-122.022;2023-04-09T02:12:02;101591.7;;;8.7;unknown
73422;BME280;61637;47.760;-122.022;2023-04-09T02:14:00;101591.7;;;8.7;unknown
73422;BME280;61637;47.760;-122.022;2023-04-09T02:16:00;101591.7;;;8.7;unknown
73422;BME280;61637;47.760;-122.022;2023-04-09T02:18:00;101591.7;;;8.7;unknown
73422;BME280;61637;47.760;-122.022;2023-04-09T02:20:01;101591.7;;;8.6;unknown
73422;BME280;61637;47.760;-122.022;2023-04-09T02:22:03;101591.7;;;8.6;unknown
73422;BME280;61637;47.760;-122.022;2023-04-09T02:24:00;101591.7;;;8.6;unknown
73422;BME280;61637;47.760;-122.022;2023-04-09T02:26:00;101591.7;;;8.6;unknown
73422;BME280;61637;47.760;-122.022;2023-04-09T02:28:00;101591.7;;;8.6;unknown
73422;BME280;61637;47.760;-122.022;2023-04-09T02:30:00;101591.7;;;8.6;unknown
73422;BME280;61637;47.760;-122.022;2023-04-09T02:32:01;101591.7;;;8.6;unknown
73422;BME280;61637;47.760;-122.022;2023-04-09T02:34:01;101591.7;;;8.6;unknown
73422;BME280;61637;47.760;-122.022;2023-04-09T02:36:00;101591.7;;;8.6;unknown
73422;BME280;61637;47.760;-122.022;2023-04-09T02:38:00;101591.7;;;8.6;unknown
73422;BME280;61637;47.760;-122.022;2023-04-09T02:40:00;101591.7;;;8.6;unknown
73422;BME280;61637;47.760;-122.022;2023-04-09T02:42:00;101591.7;;;8.6;unknown
73422;BME280;61637;47.760;-122.022;2023-04-09T02:44:00;101591.7;;;8.6;unknown
73422;BME280;61637;47.760;-122.022;2023-04-09T02:46:01;101930.339;;;8.6;unknown
73422;BME280;61637;47.760;-122.022;2023-04-09T02:48:00;101930.339;;;8.5;unknown
73422;BME280;61637;47.760;-122.022;2023-04-09T02:50:00;101930.339;;;8.5;unknown
73422;BME280;61637;47.760;-122.022;2023-04-09T02:52:00;101930.339;;;8.4;unknown
73422;BME280;61637;47.760;-122.022;2023-04-09T02:54:00;101930.339;;;8.4;unknown
73422;BME280;61637;47.760;-122.022;2023-04-09T02:56:01;101930.339;;;8.4;unknown
73422;BME280;61637;47.760;-122.022;2023-04-09T02:58:01;101930.339;;;8.4;unknown
73422;BME280;61637;47.760;-122.022;2023-04-09T03:00:00;101930.339;;;8.4;unknown
73422;BME280;61637;47.760;-122.022;2023-04-09T03:02:00;101930.339;;;8.4;unknown
73422;BME280;61637;47.760;-122.022;2023-04-09T03:04:02;101930.339;;;8.4;unknown
73422;BME280;61637;47.760;-122.022;2023-04-09T03:06:00;101930.339;;;8.4;unknown
73422;BME280;61637;47.760;-122.022;2023-04-09T03:08:01;101930.339;;;8.4;unknown
73422;BME280;61637;47.760;-122.022;2023-04-09T03:10:01;101930.339;;;8.4;unknown
73422;BME280;61637;47.760;-122.022;2023-04-09T03:12:00;101930.339;;;8.4;unknown
73422;BME280;61637;47.760;-122.022;2023-04-09T03:14:00;101930.339;;;8.4;unknown
73422;BME280;61637;47.760;-122.022;2023-04-09T03:16:00;101930.339;;;8.4;unknown
73422;BME280;61637;47.760;-122.022;2023-04-09T03:18:00;101930.339;;;8.4;unknown
73422;BME280;61637;47.760;-122.022;2023-04-09T03:20:01;101930.339;;;8.4;unknown
73422;BME280;61637;47.760;-122.022;2023-04-09T03:22:01;101930.339;;;8.4;unknown
73422;BME280;61637;47.760;-122.022;2023-04-09T03:24:00;101930.339;;;8.4;unknown
73422;BME280;61637;47.760;-122.022;2023-04-09T03:26:01;101930.339;;;8.5;unknown
73422;BME280;61637;47.760;-122.022;2023-04-09T03:28:00;101930.339;;;8.5;unknown
73422;BME280;61637;47.760;-122.022;2023-04-09T03:30:00;101930.339;;;8.4;unknown
73422;BME280;61637;47.760;-122.022;2023-04-09T03:32:01;101930.339;;;8.5;unknown
73422;BME280;61637;47.760;-122.022;2023-04-09T03:34:01;101930.339;;;8.4;unknown
73422;BME280;61637;47.760;-122.022;2023-04-09T03:36:00;101930.339;;;8.4;unknown
73422;BME280;61637;47.760;-122.022;2023-04-09T03:38:00;101930.339;;;8.4;unknown
73422;BME280;61637;47.760;-122.022;2023-04-09T03:40:00;101930.339;;;8.3;unknown
73422;BME280;61637;47.760;-122.022;2023-04-09T03:42:00;101930.339;;;8.3;unknown
73422;BME280;61637;47.760;-122.022;2023-04-09T03:44:01;101930.339;;;8.3;unknown
73422;BME280;61637;47.760;-122.022;2023-04-09T03:46:01;101930.339;;;8.3;unknown
73422;BME280;61637;47.760;-122.022;2023-04-09T03:48:00;101930.339;;;8.3;unknown
73422;BME280;61637;47.760;-122.022;2023-04-09T03:50:00;101930.339;;;8.3;unknown
73422;BME280;61637;47.760;-122.022;2023-04-09T03:52:00;101930.339;;;8.2;unknown
73422;BME280;61637;47.760;-122.022;2023-04-09T03:54:00;101930.339;;;8.2;unknown
73422;BME280;61637;47.760;-122.022;2023-04-09T03:56:00;101930.339;;;8.2;unknown
73422;BME280;61637;47.760;-122.022;2023-04-09T03:58:01;101930.339;;;8.2;unknown
73422;BME280;61637;47.760;-122.022;2023-04-09T04:00:00;101930.339;;;8.2;unknown
73422;BME280;61637;47.760;-122.022;2023-04-09T04:02:00;101930.339;;;8.2;unknown
73422;BME280;61637;47.760;-122.022;2023-04-09T04:04:00;101930.339;;;8.2;unknown
73422;BME280;61637;47.760;-122.022;2023-04-09T04:06:01;101930.339;;;8.2;unknown
73422;BME280;61637;47.760;-122.022;2023-04-09T04:08:01;101930.339;;;8.2;unknown
73422;BME280;61637;47.760;-122.022;2023-04-09T04:10:02;101930.339;;;8.2;unknown
73422;BME280;61637;47.760;-122.022;2023-04-09T04:12:00;101930.339;;;8.1;unknown
73422;BME280;61637;47.760;-122.022;2023-04-09T04:14:00;101930.339;;;8.1;unknown
73422;BME280;61637;47.760;-122.022;2023-04-09T04:16:01;101930.339;;;8.1;unknown
73422;BME280;61637;47.760;-122.022;2023-04-09T04:18:00;101930.339;;;8.1;unknown
73422;BME280;61637;47.760;-122.022;2023-04-09T04:20:00;101930.339;;;8.0;unknown
73422;BME280;61637;47.760;-122.022;2023-04-09T04:22:01;101930.339;;;7.9;unknown
73422;BME280;61637;47.760;-122.022;2023-04-09T04:24:00;101930.339;;;7.9;unknown
73422;BME280;61637;47.760;-122.022;2023-04-09T04:26:00;101930.339;;;8.0;unknown
73422;BME280;61637;47.760;-122.022;2023-04-09T04:28:00;101930.339;;;8.0;unknown
73422;BME280;61637;47.760;-122.022;2023-04-09T04:30:00;101930.339;;;7.9;unknown
73422;BME280;61637;47.760;-122.022;2023-04-09T04:32:01;101930.339;;;7.9;unknown
73422;BME280;61637;47.760;-122.022;2023-04-09T04:34:01;101930.339;;;7.9;unknown
73422;BME280;61637;47.760;-122.022;2023-04-09T04:36:04;101930.339;;;8.0;unknown
73422;BME280;61637;47.760;-122.022;2023-04-09T04:38:00;101930.339;;;7.9;unknown
73422;BME280;61637;47.760;-122.022;2023-04-09T04:40:00;101930.339;;;7.9;unknown
73422;BME280;61637;47.760;-122.022;2023-04-09T04:42:00;101930.339;;;7.9;unknown
73422;BME280;61637;47.760;-122.022;2023-04-09T04:44:01;101930.339;;;7.9;unknown
73422;BME280;61637;47.760;-122.022;2023-04-09T04:46:01;101930.339;;;7.9;unknown
73422;BME280;61637;47.760;-122.022;2023-04-09T04:48:00;101930.339;;;7.9;unknown
73422;BME280;61637;47.760;-122.022;2023-04-09T04:50:00;101930.339;;;7.9;unknown
73422;BME280;61637;47.760;-122.022;2023-04-09T04:52:00;101930.339;;;7.9;unknown
73422;BME280;61637;47.760;-122.022;2023-04-09T04:54:00;101930.339;;;7.9;unknown
73422;BME280;61637;47.760;-122.022;2023-04-09T04:56:01;101930.339;;;7.9;unknown
73422;BME280;61637;47.760;-122.022;2023-04-09T04:58:01;101930.339;;;7.9;unknown
73422;BME280;61637;47.760;-122.022;2023-04-09T05:00:00;101930.339;;;7.9;unknown
73422;BME280;61637;47.760;-122.022;2023-04-09T05:02:00;101930.339;;;7.9;unknown
73422;BME280;61637;47.760;-122.022;2023-04-09T05:04:00;101930.339;;;7.9;unknown
73422;BME280;61637;47.760;-122.022;2023-04-09T05:06:00;101930.339;;;7.9;unknown
73422;BME280;61637;47.760;-122.022;2023-04-09T05:08:01;101930.339;;;7.9;unknown
73422;BME280;61637;47.760;-122.022;2023-04-09T05:10:01;101930.339;;;7.9;unknown
73422;BME280;61637;47.760;-122.022;2023-04-09T05:12:00;101930.339;;;7.9;unknown
73422;BME280;61637;47.760;-122.022;2023-04-09T05:14:00;101930.339;;;7.9;unknown
73422;BME280;61637;47.760;-122.022;2023-04-09T05:16:00;101930.339;;;7.9;unknown
73422;BME280;61637;47.760;-122.022;2023-04-09T05:18:00;101930.339;;;7.9;unknown
73422;BME280;61637;47.760;-122.022;2023-04-09T05:20:01;101930.339;;;7.9;unknown
73422;BME280;61637;47.760;-122.022;2023-04-09T05:22:01;101930.339;;;7.9;unknown
73422;BME280;61637;47.760;-122.022;2023-04-09T05:24:00;101930.339;;;7.9;unknown
73422;BME280;61637;47.760;-122.022;2023-04-09T05:26:00;101930.339;;;7.9;unknown
73422;BME280;61637;47.760;-122.022;2023-04-09T05:28:00;101930.339;;;7.9;unknown
73422;BME280;61637;47.760;-122.022;2023-04-09T05:30:00;101930.339;;;7.8;unknown
73422;BME280;61637;47.760;-122.022;2023-04-09T05:32:01;101930.339;;;7.8;unknown
73422;BME280;61637;47.760;-122.022;2023-04-09T05:34:01;101930.339;;;7.8;unknown
73422;BME280;61637;47.760;-122.022;2023-04-09T05:36:00;101930.339;;;7.8;unknown
73422;BME280;61637;47.760;-122.022;2023-04-09T05:38:00;101930.339;;;7.8;unknown
73422;BME280;61637;47.760;-122.022;2023-04-09T05:40:00;101930.339;;;7.8;unknown
73422;BME280;61637;47.760;-122.022;2023-04-09T05:42:00;101930.339;;;7.8;unknown
73422;BME280;61637;47.760;-122.022;2023-04-09T05:44:01;101930.339;;;7.8;unknown
73422;BME280;61637;47.760;-122.022;2023-04-09T05:46:01;101930.339;;;7.8;unknown
73422;BME280;61637;47.760;-122.022;2023-04-09T05:48:00;101930.339;;;7.8;unknown
73422;BME280;61637;47.760;-122.022;2023-04-09T05:50:00;101930.339;;;7.8;unknown
73422;BME280;61637;47.760;-122.022;2023-04-09T05:52:00;101930.339;;;7.8;unknown
73422;BME280;61637;47.760;-122.022;2023-04-09T05:54:01;101930.339;;;7.8;unknown
73422;BME280;61637;47.760;-122.022;2023-04-09T05:56:01;101930.339;;;7.8;unknown
73422;BME280;61637;47.760;-122.022;2023-04-09T05:58:01;101930.339;;;7.7;unknown
73422;BME280;61637;47.760;-122.022;2023-04-09T06:00:00;101930.339;;;7.7;unknown
73422;BME280;61637;47.760;-122.022;2023-04-09T06:02:00;101930.339;;;7.7;unknown
73422;BME280;61637;47.760;-122.022;2023-04-09T06:04:00;101930.339;;;7.7;unknown
73422;BME280;61637;47.760;-122.022;2023-04-09T06:06:00;101930.339;;;7.7;unknown
73422;BME280;61637;47.760;-122.022;2023-04-09T06:08:01;101930.339;;;7.7;unknown
73422;BME280;61637;47.760;-122.022;2023-04-09T06:10:01;101930.339;;;7.7;unknown
73422;BME280;61637;47.760;-122.022;2023-04-09T06:12:00;101930.339;;;7.7;unknown
73422;BME280;61637;47.760;-122.022;2023-04-09T06:14:00;101930.339;;;7.7;unknown
73422;BME280;61637;47.760;-122.022;2023-04-09T06:16:02;101930.339;;;7.7;unknown
73422;BME280;61637;47.760;-122.022;2023-04-09T06:18:00;101930.339;;;7.7;unknown
73422;BME280;61637;47.760;-122.022;2023-04-09T06:20:01;101930.339;;;7.7;unknown
73422;BME280;61637;47.760;-122.022;2023-04-09T06:22:01;101930.339;;;7.7;unknown
73422;BME280;61637;47.760;-122.022;2023-04-09T06:24:00;101930.339;;;7.7;unknown
73422;BME280;61637;47.760;-122.022;2023-04-09T06:26:00;101930.339;;;7.7;unknown
73422;BME280;61637;47.760;-122.022;2023-04-09T06:28:00;101930.339;;;7.7;unknown
73422;BME280;61637;47.760;-122.022;2023-04-09T06:30:00;101930.339;;;7.7;unknown
73422;BME280;61637;47.760;-122.022;2023-04-09T06:32:01;101930.339;;;7.7;unknown
73422;BME280;61637;47.760;-122.022;2023-04-09T06:34:01;101930.339;;;7.7;unknown
73422;BME280;61637;47.760;-122.022;2023-04-09T06:36:00;101930.339;;;7.7;unknown
73422;BME280;61637;47.760;-122.022;2023-04-09T06:38:00;101930.339;;;7.8;unknown
73422;BME280;61637;47.760;-122.022;2023-04-09T06:40:00;101930.339;;;7.8;unknown
73422;BME280;61637;47.760;-122.022;2023-04-09T06:42:00;101930.339;;;7.8;unknown
73422;BME280;61637;47.760;-122.022;2023-04-09T06:44:00;101930.339;;;7.8;unknown
73422;BME280;61637;47.760;-122.022;2023-04-09T06:46:01;101930.339;;;7.8;unknown
73422;BME280;61637;47.760;-122.022;2023-04-09T06:48:00;101930.339;;;7.8;unknown
73422;BME280;61637;47.760;-122.022;2023-04-09T06:50:00;101930.339;;;7.8;unknown
73422;BME280;61637;47.760;-122.022;2023-04-09T06:52:00;101930.339;;;7.8;unknown
73422;BME280;61637;47.760;-122.022;2023-04-09T06:54:00;101930.339;;;7.8;unknown
73422;BME280;61637;47.760;-122.022;2023-04-09T06:56:01;101930.339;;;7.8;unknown
73422;BME280;61637;47.760;-122.022;2023-04-09T06:58:01;101930.339;;;7.8;unknown
73422;BME280;61637;47.760;-122.022;2023-04-09T07:00:00;101930.339;;;7.7;unknown
73422;BME280;61637;47.760;-122.022;2023-04-09T07:02:00;101930.339;;;7.7;unknown
73422;BME280;61637;47.760;-122.022;2023-04-09T07:04:00;101930.339;;;7.7;unknown
73422;BME280;61637;47.760;-122.022;2023-04-09T07:08:01;101930.339;;;7.7;unknown
73422;BME280;61637;47.760;-122.022;2023-04-09T07:10:01;101930.339;;;7.7;unknown
73422;BME280;61637;47.760;-122.022;2023-04-09T07:12:01;101930.339;;;7.7;unknown
73422;BME280;61637;47.760;-122.022;2023-04-09T07:14:01;101930.339;;;7.7;unknown
73422;BME280;61637;47.760;-122.022;2023-04-09T07:16:01;101930.339;;;7.7;unknown
73422;BME280;61637;47.760;-122.022;2023-04-09T07:18:01;101930.339;;;7.7;unknown
73422;BME280;61637;47.760;-122.022;2023-04-09T07:20:01;101930.339;;;7.7;unknown
73422;BME280;61637;47.760;-122.022;2023-04-09T07:22:01;101930.339;;;7.7;unknown
73422;BME280;61637;47.760;-122.022;2023-04-09T07:24:01;101930.339;;;7.7;unknown
73422;BME280;61637;47.760;-122.022;2023-04-09T07:26:01;101930.339;;;7.7;unknown
73422;BME280;61637;47.760;-122.022;2023-04-09T07:28:01;101930.339;;;7.7;unknown
73422;BME280;61637;47.760;-122.022;2023-04-09T07:30:01;101930.339;;;7.7;unknown
73422;BME280;61637;47.760;-122.022;2023-04-09T07:32:01;101930.339;;;7.7;unknown
73422;BME280;61637;47.760;-122.022;2023-04-09T07:34:01;101930.339;;;7.7;unknown
73422;BME280;61637;47.760;-122.022;2023-04-09T07:36:01;101930.339;;;7.7;unknown
73422;BME280;61637;47.760;-122.022;2023-04-09T07:38:01;101930.339;;;7.7;unknown
73422;BME280;61637;47.760;-122.022;2023-04-09T07:40:01;101930.339;;;7.7;unknown
73422;BME280;61637;47.760;-122.022;2023-04-09T07:42:01;101930.339;;;7.7;unknown
73422;BME280;61637;47.760;-122.022;2023-04-09T07:44:01;101930.339;;;7.7;unknown
73422;BME280;61637;47.760;-122.022;2023-04-09T07:46:01;101930.339;;;7.7;unknown
73422;BME280;61637;47.760;-122.022;2023-04-09T07:48:01;101930.339;;;7.7;unknown
73422;BME280;61637;47.760;-122.022;2023-04-09T07:50:01;101930.339;;;7.7;unknown
73422;BME280;61637;47.760;-122.022;2023-04-09T07:52:01;101930.339;;;7.7;unknown
73422;BME280;61637;47.760;-122.022;2023-04-09T07:54:01;101930.339;;;7.7;unknown
73422;BME280;61637;47.760;-122.022;2023-04-09T07:56:01;101930.339;;;7.7;unknown
73422;BME280;61637;47.760;-122.022;2023-04-09T07:58:01;101930.339;;;7.6;unknown
73422;BME280;61637;47.760;-122.022;2023-04-09T08:00:01;101930.339;;;7.6;unknown
73422;BME280;61637;47.760;-122.022;2023-04-09T08:02:01;101930.339;;;7.7;unknown
73422;BME280;61637;47.760;-122.022;2023-04-09T08:04:01;101930.339;;;7.7;unknown
73422;BME280;61637;47.760;-122.022;2023-04-09T08:06:01;101930.339;;;7.7;unknown
73422;BME280;61637;47.760;-122.022;2023-04-09T08:08:01;101930.339;;;7.7;unknown
73422;BME280;61637;47.760;-122.022;2023-04-09T08:10:01;101930.339;;;7.7;unknown
73422;BME280;61637;47.760;-122.022;2023-04-09T08:12:01;101930.339;;;7.7;unknown
73422;BME280;61637;47.760;-122.022;2023-04-09T08:14:01;101930.339;;;7.7;unknown
73422;BME280;61637;47.760;-122.022;2023-04-09T08:16:01;101930.339;;;7.7;unknown
73422;BME280;61637;47.760;-122.022;2023-04-09T08:18:01;101930.339;;;7.7;unknown
73422;BME280;61637;47.760;-122.022;2023-04-09T08:20:01;101930.339;;;7.7;unknown
73422;BME280;61637;47.760;-122.022;2023-04-09T08:22:01;101930.339;;;7.7;unknown
73422;BME280;61637;47.760;-122.022;2023-04-09T08:24:01;101930.339;;;7.7;unknown
73422;BME280;61637;47.760;-122.022;2023-04-09T08:26:01;101930.339;;;7.7;unknown
73422;BME280;61637;47.760;-122.022;2023-04-09T08:28:01;101930.339;;;7.7;unknown
73422;BME280;61637;47.760;-122.022;2023-04-09T08:30:01;101930.339;;;7.7;unknown
73422;BME280;61637;47.760;-122.022;2023-04-09T08:32:01;101930.339;;;7.7;unknown
73422;BME280;61637;47.760;-122.022;2023-04-09T08:34:01;101930.339;;;7.7;unknown
73422;BME280;61637;47.760;-122.022;2023-04-09T08:36:01;101930.339;;;7.7;unknown
73422;BME280;61637;47.760;-122.022;2023-04-09T08:38:01;101930.339;;;7.7;unknown
73422;BME280;61637;47.760;-122.022;2023-04-09T08:40:01;101930.339;;;7.7;unknown
73422;BME280;61637;47.760;-122.022;2023-04-09T08:42:01;101930.339;;;7.7;unknown
73422;BME280;61637;47.760;-122.022;2023-04-09T08:44:01;101930.339;;;7.7;unknown
73422;BME280;61637;47.760;-122.022;2023-04-09T08:46:01;101930.339;;;7.7;unknown
73422;BME280;61637;47.760;-122.022;2023-04-09T08:48:01;101930.339;;;7.7;unknown
73422;BME280;61637;47.760;-122.022;2023-04-09T08:50:01;101930.339;;;7.7;unknown
73422;BME280;61637;47.760;-122.022;2023-04-09T08:52:01;101930.339;;;7.7;unknown
73422;BME280;61637;47.760;-122.022;2023-04-09T08:54:01;101930.339;;;7.7;unknown
73422;BME280;61637;47.760;-122.022;2023-04-09T08:56:01;101930.339;;;7.7;unknown
73422;BME280;61637;47.760;-122.022;2023-04-09T08:58:03;101930.339;;;7.7;unknown
73422;BME280;61637;47.760;-122.022;2023-04-09T09:00:01;101930.339;;;7.7;unknown
73422;BME280;61637;47.760;-122.022;2023-04-09T09:02:07;101930.339;;;7.7;unknown
73422;BME280;61637;47.760;-122.022;2023-04-09T09:04:01;101930.339;;;7.7;unknown
73422;BME280;61637;47.760;-122.022;2023-04-09T09:06:01;101930.339;;;7.7;unknown
73422;BME280;61637;47.760;-122.022;2023-04-09T09:08:01;101930.339;;;7.7;unknown
73422;BME280;61637;47.760;-122.022;2023-04-09T09:10:01;101930.339;;;7.7;unknown
73422;BME280;61637;47.760;-122.022;2023-04-09T09:12:01;101930.339;;;7.7;unknown
73422;BME280;61637;47.760;-122.022;2023-04-09T09:14:01;101930.339;;;7.7;unknown
73422;BME280;61637;47.760;-122.022;2023-04-09T09:16:11;101930.339;;;7.7;unknown
73422;BME280;61637;47.760;-122.022;2023-04-09T09:18:01;101930.339;;;7.6;unknown
73422;BME280;61637;47.760;-122.022;2023-04-09T09:20:10;101930.339;;;7.7;unknown
73422;BME280;61637;47.760;-122.022;2023-04-09T09:22:02;101930.339;;;7.7;unknown
73422;BME280;61637;47.760;-122.022;2023-04-09T09:24:01;101930.339;;;7.7;unknown
73422;BME280;61637;47.760;-122.022;2023-04-09T09:26:03;101930.339;;;7.6;unknown
73422;BME280;61637;47.760;-122.022;2023-04-09T09:28:05;101930.339;;;7.6;unknown
73422;BME280;61637;47.760;-122.022;2023-04-09T09:30:01;101930.339;;;7.6;unknown
73422;BME280;61637;47.760;-122.022;2023-04-09T09:32:01;101930.339;;;7.6;unknown
73422;BME280;61637;47.760;-122.022;2023-04-09T09:34:01;101930.339;;;7.6;unknown
73422;BME280;61637;47.760;-122.022;2023-04-09T09:36:01;101930.339;;;7.6;unknown
73422;BME280;61637;47.760;-122.022;2023-04-09T09:38:01;101930.339;;;7.6;unknown
73422;BME280;61637;47.760;-122.022;2023-04-09T09:40:01;101591.7;;;7.6;unknown
73422;BME280;61637;47.760;-122.022;2023-04-09T09:42:06;101930.339;;;7.6;unknown
73422;BME280;61637;47.760;-122.022;2023-04-09T09:44:01;101930.339;;;7.6;unknown
73422;BME280;61637;47.760;-122.022;2023-04-09T09:46:01;101930.339;;;7.6;unknown
73422;BME280;61637;47.760;-122.022;2023-04-09T09:48:01;101591.7;;;7.6;unknown
73422;BME280;61637;47.760;-122.022;2023-04-09T09:50:01;101591.7;;;7.6;unknown
73422;BME280;61637;47.760;-122.022;2023-04-09T09:52:01;101591.7;;;7.6;unknown
73422;BME280;61637;47.760;-122.022;2023-04-09T09:54:01;101591.7;;;7.6;unknown
73422;BME280;61637;47.760;-122.022;2023-04-09T09:56:01;101591.7;;;7.6;unknown
73422;BME280;61637;47.760;-122.022;2023-04-09T09:58:02;101591.7;;;7.6;unknown